AEE119 LGTS-LGAV
Flight info
| Callsign | AEE119 |
|---|---|
| Flight time | 0h 30m |
| Altitude | 25000 |
| Route | LEKPO UL617 SKP UM749 ROPOX |
| Aircraft | A320/M-SDE3FGHIRWY/LB1 |
Departure
| Time | 2026-05-06 14:25 |
|---|---|
| Airport | Thessaloniki Macedonia International Airport (LGTS) |
Arrival
| Time | 2026-05-06 14:56 |
|---|---|
| Airport | Athens Eleftherios Venizelos International Airport (LGAV) |
| Time | Latitude | Longitude | Altitude | Speed | Heading |
|---|---|---|---|---|---|
| 2026-05-06 13:54 | 40.52202 | 22.97777 | 29 ft | 0 kts | 45° |
| 2026-05-06 14:16 | 40.52191 | 22.97761 | 29 ft | 4 kts | 45° |
| 2026-05-06 14:16 | 40.52172 | 22.97737 | 29 ft | 4 kts | 45° |
| 2026-05-06 14:16 | 40.52153 | 22.97712 | 29 ft | 3 kts | 45° |
| 2026-05-06 14:16 | 40.52137 | 22.97693 | 29 ft | 4 kts | 21° |
| 2026-05-06 14:17 | 40.52117 | 22.97695 | 29 ft | 3 kts | 315° |
| 2026-05-06 14:17 | 40.52104 | 22.97713 | 29 ft | 0 kts | 315° |
| 2026-05-06 14:20 | 40.52105 | 22.97711 | 29 ft | 1 kts | 315° |
| 2026-05-06 14:20 | 40.52118 | 22.97694 | 29 ft | 4 kts | 315° |
| 2026-05-06 14:20 | 40.52139 | 22.97655 | 29 ft | 5 kts | 299° |
| 2026-05-06 14:21 | 40.52158 | 22.97603 | 28 ft | 8 kts | 294° |
| 2026-05-06 14:21 | 40.52190 | 22.97534 | 28 ft | 10 kts | 312° |
| 2026-05-06 14:21 | 40.52245 | 22.97460 | 28 ft | 13 kts | 315° |
| 2026-05-06 14:21 | 40.52314 | 22.97372 | 28 ft | 15 kts | 315° |
| 2026-05-06 14:22 | 40.52380 | 22.97274 | 28 ft | 13 kts | 293° |
| 2026-05-06 14:22 | 40.52392 | 22.97160 | 28 ft | 12 kts | 310° |
| 2026-05-06 14:22 | 40.52480 | 22.97118 | 28 ft | 15 kts | 347° |
| 2026-05-06 14:22 | 40.52585 | 22.97084 | 29 ft | 17 kts | 346° |
| 2026-05-06 14:23 | 40.52707 | 22.97045 | 29 ft | 19 kts | 346° |
| 2026-05-06 14:23 | 40.52845 | 22.97003 | 29 ft | 22 kts | 346° |
| 2026-05-06 14:23 | 40.52998 | 22.96953 | 29 ft | 21 kts | 346° |
| 2026-05-06 14:23 | 40.53067 | 22.96914 | 28 ft | 9 kts | 302° |
| 2026-05-06 14:24 | 40.53046 | 22.96831 | 28 ft | 12 kts | 226° |
| 2026-05-06 14:24 | 40.52969 | 22.96782 | 28 ft | 11 kts | 173° |
| 2026-05-06 14:24 | 40.52889 | 22.96807 | 30 ft | 21 kts | 166° |
| 2026-05-06 14:24 | 40.52504 | 22.96927 | 29 ft | 91 kts | 166° |
| 2026-05-06 14:25 | 40.51703 | 22.97182 | 33 ft | 143 kts | 166° |
| 2026-05-06 14:25 | 40.50695 | 22.97485 | 505 ft | 152 kts | 168° |
| 2026-05-06 14:25 | 40.49653 | 22.97771 | 1174 ft | 152 kts | 171° |
| 2026-05-06 14:25 | 40.48578 | 22.98062 | 1615 ft | 168 kts | 167° |
| 2026-05-06 14:26 | 40.47369 | 22.98394 | 1992 ft | 187 kts | 167° |
| 2026-05-06 14:26 | 40.46025 | 22.98763 | 2400 ft | 208 kts | 167° |
| 2026-05-06 14:26 | 40.44519 | 22.99181 | 2851 ft | 234 kts | 168° |
| 2026-05-06 14:26 | 40.42848 | 22.99647 | 3441 ft | 254 kts | 168° |
| 2026-05-06 14:27 | 40.41115 | 23.00131 | 4353 ft | 261 kts | 168° |
| 2026-05-06 14:27 | 40.39322 | 23.00632 | 5328 ft | 266 kts | 169° |
| 2026-05-06 14:27 | 40.37492 | 23.01145 | 6294 ft | 272 kts | 169° |
| 2026-05-06 14:27 | 40.35617 | 23.01686 | 7063 ft | 284 kts | 167° |
| 2026-05-06 14:28 | 40.33686 | 23.02539 | 7687 ft | 302 kts | 160° |
| 2026-05-06 14:28 | 40.31710 | 23.03681 | 8330 ft | 318 kts | 156° |
| 2026-05-06 14:28 | 40.29664 | 23.04978 | 8777 ft | 337 kts | 155° |
| 2026-05-06 14:28 | 40.27498 | 23.06375 | 9170 ft | 356 kts | 155° |
| 2026-05-06 14:29 | 40.25219 | 23.07823 | 9569 ft | 373 kts | 155° |
| 2026-05-06 14:29 | 40.22838 | 23.09299 | 9973 ft | 383 kts | 156° |
| 2026-05-06 14:29 | 40.20436 | 23.10755 | 10389 ft | 389 kts | 156° |
| 2026-05-06 14:29 | 40.17960 | 23.12234 | 11046 ft | 394 kts | 156° |
| 2026-05-06 14:30 | 40.15445 | 23.13729 | 11673 ft | 399 kts | 156° |
| 2026-05-06 14:30 | 40.12900 | 23.15237 | 12292 ft | 404 kts | 156° |
| 2026-05-06 14:30 | 40.10314 | 23.16740 | 12909 ft | 410 kts | 157° |
| 2026-05-06 14:30 | 40.07659 | 23.18149 | 13524 ft | 415 kts | 159° |
| 2026-05-06 14:31 | 40.04938 | 23.19485 | 14084 ft | 420 kts | 160° |
| 2026-05-06 14:31 | 40.02175 | 23.20788 | 14638 ft | 424 kts | 161° |
| 2026-05-06 14:31 | 39.99421 | 23.22077 | 15194 ft | 428 kts | 161° |
| 2026-05-06 14:31 | 39.96608 | 23.23412 | 15749 ft | 432 kts | 160° |
| 2026-05-06 14:32 | 39.93774 | 23.24784 | 16295 ft | 436 kts | 160° |
| 2026-05-06 14:32 | 39.90919 | 23.26185 | 16844 ft | 440 kts | 160° |
| 2026-05-06 14:32 | 39.88042 | 23.27606 | 17392 ft | 444 kts | 160° |
| 2026-05-06 14:32 | 39.85139 | 23.29040 | 17939 ft | 448 kts | 160° |
| 2026-05-06 14:33 | 39.82212 | 23.30482 | 18461 ft | 452 kts | 160° |
| 2026-05-06 14:33 | 39.79258 | 23.31934 | 18917 ft | 456 kts | 160° |
| 2026-05-06 14:33 | 39.76269 | 23.33398 | 19375 ft | 461 kts | 161° |
| 2026-05-06 14:33 | 39.73292 | 23.34850 | 19819 ft | 465 kts | 161° |
| 2026-05-06 14:34 | 39.70252 | 23.36327 | 20263 ft | 469 kts | 161° |
| 2026-05-06 14:34 | 39.67181 | 23.37820 | 20684 ft | 473 kts | 161° |
| 2026-05-06 14:34 | 39.64088 | 23.39326 | 21095 ft | 477 kts | 161° |
| 2026-05-06 14:34 | 39.60965 | 23.40845 | 21494 ft | 481 kts | 161° |
| 2026-05-06 14:35 | 39.57821 | 23.42374 | 21878 ft | 485 kts | 161° |
| 2026-05-06 14:35 | 39.54655 | 23.43917 | 22252 ft | 488 kts | 161° |
| 2026-05-06 14:35 | 39.51460 | 23.45472 | 22618 ft | 492 kts | 161° |
| 2026-05-06 14:35 | 39.48286 | 23.47010 | 22974 ft | 495 kts | 161° |
| 2026-05-06 14:36 | 39.45050 | 23.48572 | 23331 ft | 499 kts | 161° |
| 2026-05-06 14:36 | 39.41785 | 23.50147 | 23671 ft | 502 kts | 161° |
| 2026-05-06 14:36 | 39.38501 | 23.51733 | 23977 ft | 505 kts | 161° |
| 2026-05-06 14:36 | 39.35206 | 23.53329 | 24315 ft | 507 kts | 161° |
| 2026-05-06 14:37 | 39.31890 | 23.54935 | 24664 ft | 509 kts | 161° |
| 2026-05-06 14:37 | 39.28568 | 23.56540 | 24963 ft | 511 kts | 161° |
| 2026-05-06 14:37 | 39.25239 | 23.58146 | 25044 ft | 511 kts | 161° |
| 2026-05-06 14:37 | 39.21957 | 23.59724 | 25058 ft | 511 kts | 161° |
| 2026-05-06 14:38 | 39.18597 | 23.61201 | 25056 ft | 509 kts | 167° |
| 2026-05-06 14:38 | 39.15134 | 23.62042 | 25056 ft | 506 kts | 176° |
| 2026-05-06 14:38 | 39.11637 | 23.62555 | 25054 ft | 506 kts | 176° |
| 2026-05-06 14:38 | 39.08143 | 23.63066 | 25056 ft | 505 kts | 176° |
| 2026-05-06 14:39 | 39.04650 | 23.63578 | 25058 ft | 505 kts | 176° |
| 2026-05-06 14:39 | 39.01158 | 23.64092 | 25059 ft | 505 kts | 176° |
| 2026-05-06 14:39 | 38.97665 | 23.64609 | 25058 ft | 505 kts | 176° |
| 2026-05-06 14:39 | 38.94216 | 23.65124 | 25052 ft | 505 kts | 176° |
| 2026-05-06 14:40 | 38.90732 | 23.65644 | 25049 ft | 505 kts | 176° |
| 2026-05-06 14:40 | 38.87243 | 23.66158 | 25047 ft | 504 kts | 176° |
| 2026-05-06 14:40 | 38.83752 | 23.66670 | 25041 ft | 504 kts | 176° |
| 2026-05-06 14:40 | 38.80272 | 23.67180 | 25043 ft | 504 kts | 176° |
| 2026-05-06 14:41 | 38.76783 | 23.67694 | 25035 ft | 504 kts | 176° |
| 2026-05-06 14:41 | 38.73335 | 23.68493 | 25038 ft | 507 kts | 164° |
| 2026-05-06 14:41 | 38.70112 | 23.70318 | 24816 ft | 505 kts | 150° |
| 2026-05-06 14:41 | 38.67342 | 23.73027 | 24061 ft | 500 kts | 136° |
| 2026-05-06 14:42 | 38.64830 | 23.76083 | 23149 ft | 497 kts | 135° |
| 2026-05-06 14:42 | 38.62353 | 23.79130 | 22318 ft | 491 kts | 135° |
| 2026-05-06 14:42 | 38.59917 | 23.82137 | 21582 ft | 484 kts | 135° |
| 2026-05-06 14:42 | 38.57553 | 23.85077 | 20866 ft | 477 kts | 134° |
| 2026-05-06 14:43 | 38.55558 | 23.88405 | 20164 ft | 468 kts | 118° |
| 2026-05-06 14:43 | 38.54048 | 23.92062 | 19403 ft | 462 kts | 115° |
| 2026-05-06 14:43 | 38.52603 | 23.95703 | 18698 ft | 456 kts | 115° |
| 2026-05-06 14:43 | 38.51185 | 23.99299 | 17955 ft | 450 kts | 115° |
| 2026-05-06 14:44 | 38.49787 | 24.02839 | 17223 ft | 444 kts | 115° |
| 2026-05-06 14:44 | 38.48406 | 24.06338 | 16512 ft | 439 kts | 115° |
| 2026-05-06 14:44 | 38.47041 | 24.09793 | 15841 ft | 433 kts | 115° |
| 2026-05-06 14:45 | 38.44353 | 24.16576 | 14582 ft | 423 kts | 115° |
| 2026-05-06 14:45 | 38.43029 | 24.19899 | 13959 ft | 418 kts | 115° |
| 2026-05-06 14:45 | 38.41724 | 24.23182 | 13273 ft | 413 kts | 115° |
| 2026-05-06 14:45 | 38.40459 | 24.26385 | 12592 ft | 408 kts | 115° |
| 2026-05-06 14:46 | 38.39198 | 24.29596 | 11899 ft | 402 kts | 115° |
| 2026-05-06 14:46 | 38.37936 | 24.32752 | 11225 ft | 397 kts | 120° |
| 2026-05-06 14:46 | 38.36188 | 24.35434 | 10568 ft | 392 kts | 140° |
| 2026-05-06 14:46 | 38.33890 | 24.37136 | 10190 ft | 369 kts | 161° |
| 2026-05-06 14:47 | 38.31485 | 24.37627 | 10018 ft | 336 kts | 182° |
| 2026-05-06 14:47 | 38.29257 | 24.37375 | 9890 ft | 312 kts | 196° |
| 2026-05-06 14:47 | 38.27365 | 24.36212 | 9764 ft | 297 kts | 220° |
| 2026-05-06 14:47 | 38.25846 | 24.34512 | 9443 ft | 288 kts | 225° |
| 2026-05-06 14:48 | 38.24386 | 24.32753 | 8927 ft | 291 kts | 225° |
| 2026-05-06 14:48 | 38.22917 | 24.30963 | 8420 ft | 295 kts | 225° |
| 2026-05-06 14:48 | 38.21463 | 24.29184 | 7916 ft | 290 kts | 225° |
| 2026-05-06 14:48 | 38.20154 | 24.27262 | 7407 ft | 279 kts | 243° |
| 2026-05-06 14:49 | 38.19475 | 24.25030 | 6934 ft | 272 kts | 254° |
| 2026-05-06 14:49 | 38.18949 | 24.22745 | 6439 ft | 267 kts | 255° |
| 2026-05-06 14:49 | 38.18430 | 24.20501 | 6011 ft | 261 kts | 250° |
| 2026-05-06 14:49 | 38.17529 | 24.18561 | 5703 ft | 251 kts | 229° |
| 2026-05-06 14:50 | 38.16233 | 24.17140 | 5385 ft | 242 kts | 218° |
| 2026-05-06 14:50 | 38.14912 | 24.15876 | 5091 ft | 233 kts | 219° |
| 2026-05-06 14:50 | 38.13631 | 24.14648 | 4806 ft | 230 kts | 218° |
| 2026-05-06 14:50 | 38.12355 | 24.13423 | 4488 ft | 229 kts | 218° |
| 2026-05-06 14:51 | 38.11087 | 24.12208 | 4184 ft | 228 kts | 218° |
| 2026-05-06 14:51 | 38.09825 | 24.10999 | 3882 ft | 227 kts | 218° |
| 2026-05-06 14:51 | 38.08571 | 24.09799 | 3588 ft | 225 kts | 218° |
| 2026-05-06 14:51 | 38.07357 | 24.08638 | 3304 ft | 217 kts | 217° |
| 2026-05-06 14:52 | 38.06179 | 24.07511 | 3026 ft | 207 kts | 217° |
| 2026-05-06 14:52 | 38.05052 | 24.06434 | 2757 ft | 198 kts | 217° |
| 2026-05-06 14:52 | 38.03979 | 24.05409 | 2511 ft | 187 kts | 217° |
| 2026-05-06 14:52 | 38.02980 | 24.04452 | 2254 ft | 172 kts | 216° |
| 2026-05-06 14:53 | 38.02094 | 24.03604 | 2046 ft | 150 kts | 215° |
| 2026-05-06 14:53 | 38.01293 | 24.02844 | 1779 ft | 139 kts | 216° |
| 2026-05-06 14:53 | 38.00533 | 24.02119 | 1593 ft | 135 kts | 214° |
| 2026-05-06 14:53 | 37.99782 | 24.01396 | 1444 ft | 135 kts | 216° |
| 2026-05-06 14:54 | 37.99042 | 24.00690 | 1320 ft | 134 kts | 216° |
| 2026-05-06 14:54 | 37.98297 | 23.99978 | 1100 ft | 133 kts | 215° |
| 2026-05-06 14:54 | 37.97562 | 23.99283 | 908 ft | 131 kts | 216° |
| 2026-05-06 14:54 | 37.96847 | 23.98603 | 742 ft | 129 kts | 216° |
| 2026-05-06 14:55 | 37.96138 | 23.97923 | 577 ft | 126 kts | 215° |
| 2026-05-06 14:55 | 37.95426 | 23.97252 | 424 ft | 128 kts | 218° |
| 2026-05-06 14:55 | 37.94723 | 23.96579 | 303 ft | 121 kts | 217° |
| 2026-05-06 14:55 | 37.94180 | 23.96063 | 284 ft | 70 kts | 216° |
| 2026-05-06 14:56 | 37.93924 | 23.95809 | 279 ft | 21 kts | 226° |
| 2026-05-06 14:56 | 37.93842 | 23.95659 | 281 ft | 19 kts | 244° |
| 2026-05-06 14:56 | 37.93808 | 23.95564 | 290 ft | 8 kts | 246° |
| 2026-05-06 14:56 | 37.93796 | 23.95523 | 293 ft | 1 kts | 258° |
| 2026-05-06 14:57 | 37.93796 | 23.95522 | 293 ft | 0 kts | 259° |
| 2026-05-06 14:57 | 37.93797 | 23.95514 | 293 ft | 3 kts | 277° |
| 2026-05-06 14:57 | 37.93817 | 23.95474 | 297 ft | 8 kts | 305° |
| 2026-05-06 14:57 | 37.93867 | 23.95390 | 302 ft | 15 kts | 307° |
| 2026-05-06 14:58 | 37.93867 | 23.95252 | 301 ft | 18 kts | 249° |
| 2026-05-06 14:58 | 37.93804 | 23.95153 | 300 ft | 8 kts | 229° |
| 2026-05-06 14:58 | 37.93823 | 23.95082 | 305 ft | 10 kts | 307° |
| 2026-05-06 14:58 | 37.93837 | 23.95060 | 301 ft | 0 kts | 307° |